createdAt,value
2019-02-22T00:00:51.227Z,90.40
2019-02-22T00:03:19.665Z,90.20
2019-02-22T00:05:48.103Z,90.20
2019-02-22T00:08:16.543Z,90.20
2019-02-22T00:10:45.077Z,90.20
2019-02-22T00:13:13.631Z,90.30
2019-02-22T00:15:42.092Z,90.30
2019-02-22T00:18:10.609Z,90.30
2019-02-22T00:20:41.190Z,90.30
2019-02-22T00:23:09.474Z,90.30
2019-02-22T00:25:38.012Z,90.20
2019-02-22T00:28:06.474Z,90.30
2019-02-22T00:30:34.975Z,90.30
2019-02-22T00:33:03.581Z,90.40
2019-02-22T00:35:32.078Z,90.50
2019-02-22T00:38:00.577Z,90.50
2019-02-22T00:40:29.284Z,90.50
2019-02-22T00:42:57.776Z,90.60
2019-02-22T00:45:26.713Z,90.50
2019-02-22T00:47:55.149Z,90.50
2019-02-22T00:50:23.600Z,90.50
2019-02-22T00:52:52.164Z,90.30
2019-02-22T00:55:20.724Z,91.10
2019-02-22T00:57:49.270Z,90.80
2019-02-22T01:00:18.069Z,90.80
2019-02-22T01:02:46.505Z,90.80
2019-02-22T01:05:21.647Z,90.80
2019-02-22T01:07:52.706Z,90.80
2019-02-22T01:15:55.837Z,90.60
2019-02-22T01:18:24.541Z,90.60
2019-02-22T01:20:54.581Z,90.60
2019-02-22T01:23:23.664Z,90.60
2019-02-22T01:25:52.093Z,90.70
2019-02-22T01:28:21.040Z,90.70
2019-02-22T01:30:49.521Z,90.70
2019-02-22T01:33:18.307Z,90.50
2019-02-22T01:35:46.748Z,90.60
2019-02-22T01:38:15.181Z,90.50
2019-02-22T01:40:44.278Z,90.60
2019-02-22T01:43:12.932Z,90.60
2019-02-22T01:45:41.367Z,90.60
2019-02-22T01:48:09.802Z,90.70
2019-02-22T01:50:38.499Z,90.60
2019-02-22T01:53:06.996Z,90.60
2019-02-22T01:55:35.465Z,90.60
2019-02-22T01:58:03.935Z,90.60
2019-02-22T02:00:32.437Z,90.60
2019-02-22T02:03:00.909Z,90.70
2019-02-22T02:05:29.341Z,90.70
2019-02-22T02:07:58.065Z,90.80
2019-02-22T02:10:26.857Z,90.90
2019-02-22T02:12:55.324Z,90.90
2019-02-22T02:15:23.753Z,90.90
2019-02-22T02:17:52.257Z,91.00
2019-02-22T02:20:20.724Z,90.80
2019-02-22T02:22:49.506Z,90.60
2019-02-22T02:25:17.936Z,90.60
2019-02-22T02:27:46.753Z,90.50
2019-02-22T02:30:15.203Z,90.40
2019-02-22T02:32:43.626Z,90.50
2019-02-22T02:35:12.390Z,90.50
2019-02-22T02:37:41.177Z,90.40
2019-02-22T02:40:09.618Z,90.50
2019-02-22T02:42:38.049Z,90.50
2019-02-22T02:45:06.932Z,90.50
2019-02-22T02:47:35.361Z,90.70
2019-02-22T02:50:04.453Z,90.70
2019-02-22T02:52:32.950Z,90.90
2019-02-22T02:55:01.391Z,90.90
2019-02-22T02:57:29.822Z,91.10
2019-02-22T02:59:58.280Z,91.20
2019-02-22T03:02:27.481Z,91.60
2019-02-22T03:04:55.966Z,91.10
2019-02-22T03:07:35.334Z,90.90
2019-02-22T03:10:04.108Z,90.70
2019-02-22T03:12:32.545Z,90.80
2019-02-22T03:15:00.978Z,90.50
2019-02-22T03:17:29.443Z,90.60
2019-02-22T03:19:57.893Z,90.50
2019-02-22T03:22:26.343Z,90.60
2019-02-22T03:24:55.126Z,90.50
2019-02-22T03:27:23.574Z,90.50
2019-02-22T03:29:52.298Z,90.60
2019-02-22T03:32:20.742Z,90.70
2019-02-22T03:34:49.482Z,90.90
2019-02-22T03:37:18.057Z,91.30
2019-02-22T03:39:46.491Z,91.40
2019-02-22T03:42:15.005Z,91.50
2019-02-22T03:44:43.439Z,91.70
2019-02-22T03:47:11.877Z,92.10
2019-02-22T03:49:40.388Z,92.00
2019-02-22T03:52:10.474Z,92.30
2019-02-22T03:54:39.263Z,92.50
2019-02-22T03:57:07.710Z,92.40
2019-02-22T03:59:36.137Z,92.30
2019-02-22T04:02:04.652Z,92.40
2019-02-22T04:04:33.079Z,92.50
2019-02-22T04:07:01.532Z,92.30
2019-02-22T04:09:30.029Z,92.50
2019-02-22T04:11:58.472Z,92.50
2019-02-22T04:14:26.973Z,92.40
2019-02-22T04:16:55.419Z,92.40
2019-02-22T04:19:23.853Z,92.40
2019-02-22T04:21:52.561Z,92.10
2019-02-22T04:24:20.995Z,92.50
2019-02-22T04:26:49.732Z,92.50
2019-02-22T04:29:18.152Z,92.50
2019-02-22T04:31:46.610Z,92.60
2019-02-22T04:34:15.044Z,92.50
2019-02-22T04:36:43.558Z,92.50
2019-02-22T04:39:11.984Z,92.20
2019-02-22T04:41:40.721Z,92.30
2019-02-22T04:44:09.154Z,92.10
2019-02-22T04:46:37.597Z,92.10
2019-02-22T04:49:06.029Z,92.20
2019-02-22T04:51:34.750Z,92.50
2019-02-22T04:54:03.181Z,92.70
2019-02-22T04:56:31.618Z,92.80
2019-02-22T04:59:00.066Z,92.60
2019-02-22T05:01:28.787Z,92.70
2019-02-22T05:03:57.228Z,92.80
2019-02-22T05:06:25.657Z,92.80
2019-02-22T05:08:54.346Z,92.90
2019-02-22T05:11:22.772Z,92.80
2019-02-22T05:13:51.464Z,92.80
2019-02-22T05:16:19.901Z,92.80
2019-02-22T05:18:48.346Z,92.90
2019-02-22T05:21:17.041Z,92.90
2019-02-22T05:23:45.837Z,93.10
2019-02-22T05:26:14.536Z,93.00
2019-02-22T05:28:43.067Z,92.80
2019-02-22T05:31:11.627Z,93.30
2019-02-22T05:33:40.477Z,93.40
2019-02-22T05:36:08.917Z,93.10
2019-02-22T05:38:37.642Z,93.10
2019-02-22T05:41:06.070Z,93.20
2019-02-22T05:43:34.512Z,93.20
2019-02-22T05:46:03.020Z,93.30
2019-02-22T05:48:31.782Z,93.30
2019-02-22T05:51:00.222Z,93.10
2019-02-22T05:53:28.669Z,93.00
2019-02-22T05:55:57.088Z,92.90
2019-02-22T05:58:25.534Z,92.70
2019-02-22T06:00:53.969Z,93.20
2019-02-22T06:03:22.410Z,92.70
2019-02-22T06:05:50.842Z,92.80
2019-02-22T06:08:19.291Z,93.10
2019-02-22T06:10:47.801Z,93.30
2019-02-22T06:13:16.245Z,93.20
2019-02-22T06:15:44.677Z,93.50
2019-02-22T06:18:13.137Z,93.50
2019-02-22T06:20:41.853Z,93.60
2019-02-22T06:23:10.286Z,93.60
2019-02-22T06:25:38.730Z,93.30
2019-02-22T06:28:07.482Z,93.90
2019-02-22T06:30:36.277Z,93.70
2019-02-22T06:33:04.725Z,93.80
2019-02-22T06:35:33.458Z,93.60
2019-02-22T06:38:01.906Z,93.60
2019-02-22T06:40:30.337Z,93.70
2019-02-22T06:42:58.789Z,93.80
2019-02-22T06:45:27.222Z,93.90
2019-02-22T06:47:55.949Z,94.10
2019-02-22T06:50:33.306Z,94.00
2019-02-22T06:52:54.574Z,94.40
2019-02-22T06:55:23.021Z,94.00
2019-02-22T06:57:51.510Z,94.10
2019-02-22T07:00:19.953Z,94.10
2019-02-22T07:02:48.385Z,93.80
2019-02-22T07:05:16.821Z,94.00
2019-02-22T07:07:45.256Z,93.90
2019-02-22T07:10:13.801Z,93.80
2019-02-22T07:12:43.872Z,94.10
2019-02-22T07:15:12.390Z,94.00
2019-02-22T07:17:41.071Z,94.10
2019-02-22T07:20:11.406Z,94.10
2019-02-22T07:22:40.125Z,94.00
2019-02-22T07:25:11.206Z,93.90
2019-02-22T07:27:39.893Z,94.00
2019-02-22T07:30:11.220Z,94.00
2019-02-22T07:32:39.052Z,94.00
2019-02-22T07:35:09.921Z,94.20
2019-02-22T07:37:38.810Z,94.30
2019-02-22T07:40:07.624Z,94.50
2019-02-22T07:42:36.053Z,94.50
2019-02-22T07:45:06.737Z,94.40
2019-02-22T07:47:35.165Z,94.40
2019-02-22T07:50:04.991Z,94.00
2019-02-22T07:52:33.452Z,94.10
2019-02-22T07:55:01.894Z,93.80
2019-02-22T07:57:30.406Z,93.90
2019-02-22T07:59:58.857Z,93.80
2019-02-22T08:02:27.282Z,93.70
2019-02-22T08:04:55.740Z,93.80
2019-02-22T08:07:24.233Z,93.70
2019-02-22T08:09:52.946Z,93.50
2019-02-22T08:12:21.733Z,93.80
2019-02-22T08:14:50.177Z,93.80
2019-02-22T08:17:18.862Z,93.60
2019-02-22T08:19:47.949Z,93.40
2019-02-22T08:22:16.868Z,93.40
2019-02-22T08:24:45.926Z,93.50
2019-02-22T08:27:14.370Z,93.70
2019-02-22T08:29:43.159Z,93.50
2019-02-22T08:32:11.596Z,93.40
2019-02-22T08:34:40.112Z,93.30
2019-02-22T08:39:30.718Z,93.00
2019-02-22T08:41:59.420Z,93.00
2019-02-22T08:44:27.845Z,93.10
2019-02-22T08:46:56.584Z,93.20
2019-02-22T08:49:25.375Z,93.00
2019-02-22T08:51:53.822Z,93.20
2019-02-22T08:54:22.250Z,93.10
2019-02-22T08:56:51.030Z,93.40
2019-02-22T08:59:19.461Z,93.40
2019-02-22T09:01:47.910Z,93.60
2019-02-22T09:04:16.686Z,93.40
2019-02-22T09:06:45.145Z,93.40
2019-02-22T09:09:13.955Z,93.30
2019-02-22T09:11:42.381Z,93.30
2019-02-22T09:14:10.908Z,93.40
2019-02-22T09:16:39.338Z,93.30
2019-02-22T09:19:07.797Z,93.10
2019-02-22T09:21:36.242Z,93.30
2019-02-22T09:24:05.047Z,93.10
2019-02-22T09:26:33.548Z,92.90
2019-02-22T09:29:01.982Z,92.60
2019-02-22T09:31:30.499Z,92.60
2019-02-22T09:33:58.943Z,92.70
2019-02-22T09:36:27.454Z,92.60
2019-02-22T09:38:56.402Z,92.80
2019-02-22T09:41:25.148Z,92.50
2019-02-22T09:43:55.534Z,92.60
2019-02-22T09:46:24.142Z,92.40
2019-02-22T09:48:52.608Z,92.00
2019-02-22T09:51:21.041Z,92.10
2019-02-22T09:53:49.491Z,92.10
2019-02-22T09:56:18.271Z,91.80
2019-02-22T09:58:47.062Z,92.20
2019-02-22T10:01:15.511Z,92.10
2019-02-22T10:03:43.937Z,92.40
2019-02-22T10:06:12.376Z,92.10
2019-02-22T10:08:40.812Z,91.60
2019-02-22T10:11:09.274Z,92.00
2019-02-22T10:13:37.765Z,91.80
2019-02-22T10:16:06.214Z,91.50
2019-02-22T10:18:34.650Z,91.60
2019-02-22T10:21:03.109Z,91.90
2019-02-22T10:23:31.878Z,91.70
2019-02-22T10:26:00.309Z,91.90
2019-02-22T10:28:28.756Z,92.10
2019-02-22T10:30:57.217Z,91.80
2019-02-22T10:33:35.931Z,91.80
2019-02-22T10:35:55.832Z,91.60
2019-02-22T10:38:24.265Z,91.70
2019-02-22T10:40:52.700Z,91.70
2019-02-22T10:43:21.145Z,91.70
2019-02-22T10:45:49.573Z,91.50
2019-02-22T10:48:18.026Z,91.60
2019-02-22T10:50:46.462Z,91.60
2019-02-22T10:53:15.194Z,91.60
2019-02-22T10:55:43.985Z,91.60
2019-02-22T10:58:12.444Z,91.70
2019-02-22T11:00:40.905Z,91.60
2019-02-22T11:03:09.631Z,91.50
2019-02-22T11:05:38.073Z,91.80
2019-02-22T11:08:06.516Z,91.80
2019-02-22T11:10:35.202Z,92.10
2019-02-22T11:13:03.641Z,92.30
2019-02-22T11:15:32.076Z,92.50
2019-02-22T11:18:00.521Z,92.40
2019-02-22T11:20:29.311Z,92.30
2019-02-22T11:22:57.755Z,92.30
2019-02-22T11:25:26.185Z,92.40
2019-02-22T11:27:54.638Z,92.50
2019-02-22T11:30:23.069Z,92.40
2019-02-22T11:32:51.821Z,92.40
2019-02-22T11:35:20.298Z,92.10
2019-02-22T11:37:48.802Z,92.00
2019-02-22T11:40:17.735Z,92.20
2019-02-22T11:42:46.446Z,92.50
2019-02-22T11:45:14.908Z,92.30
2019-02-22T11:47:43.339Z,92.20
2019-02-22T11:50:12.930Z,92.10
2019-02-22T11:52:41.367Z,92.20
2019-02-22T11:55:10.978Z,92.00
2019-02-22T11:57:39.525Z,92.20
2019-02-22T12:00:12.679Z,92.40
2019-02-22T12:02:41.795Z,92.00
2019-02-22T12:05:10.324Z,91.70
2019-02-22T12:07:38.757Z,91.80
2019-02-22T12:10:08.441Z,91.60
2019-02-22T12:12:37.153Z,91.90
2019-02-22T12:15:08.924Z,92.20
2019-02-22T12:17:37.444Z,91.90
2019-02-22T12:20:07.969Z,91.50
2019-02-22T12:22:36.733Z,91.20
2019-02-22T12:25:08.173Z,91.10
2019-02-22T12:27:36.621Z,91.00
2019-02-22T12:30:10.465Z,90.50
2019-02-22T12:32:39.670Z,90.90
2019-02-22T12:35:08.846Z,90.90
2019-02-22T12:37:37.642Z,90.60
2019-02-22T12:40:09.018Z,90.70
2019-02-22T12:42:37.878Z,90.40
2019-02-22T12:45:13.392Z,89.80
2019-02-22T12:47:41.845Z,90.50
2019-02-22T12:50:11.517Z,90.50
2019-02-22T12:52:40.048Z,90.20
2019-02-22T12:55:29.673Z,90.00
2019-02-22T12:57:58.460Z,90.20
2019-02-22T13:00:27.303Z,90.50
2019-02-22T13:03:01.942Z,90.70
2019-02-22T13:05:30.258Z,90.60
2019-02-22T13:08:02.309Z,90.10
2019-02-22T13:10:30.752Z,90.10
2019-02-22T13:12:59.674Z,90.20
2019-02-22T13:15:28.102Z,90.30
2019-02-22T13:17:56.545Z,90.50
2019-02-22T13:20:26.686Z,90.20
2019-02-22T13:22:55.257Z,90.00
2019-02-22T13:25:23.942Z,90.00
2019-02-22T13:27:52.385Z,89.30
2019-02-22T13:30:20.813Z,89.90
2019-02-22T13:32:49.257Z,90.60
2019-02-22T13:35:17.689Z,90.20
2019-02-22T13:37:46.461Z,88.80
2019-02-22T13:40:16.345Z,88.00
2019-02-22T13:42:44.857Z,88.40
2019-02-22T13:45:25.531Z,88.50
2019-02-22T13:47:44.717Z,85.90
2019-02-22T13:50:15.306Z,86.10
2019-02-22T13:52:44.011Z,86.50
2019-02-22T13:55:13.102Z,87.50
2019-02-22T13:57:41.958Z,86.10
2019-02-22T14:00:15.702Z,86.40
2019-02-22T14:02:44.214Z,86.60
2019-02-22T14:05:13.045Z,85.60
2019-02-22T14:07:52.646Z,85.80
2019-02-22T14:10:21.228Z,86.70
2019-02-22T14:12:49.670Z,85.50
2019-02-22T14:15:18.889Z,86.30
2019-02-22T14:17:49.173Z,87.50
2019-02-22T14:20:18.094Z,86.50
2019-02-22T14:22:48.048Z,86.50
2019-02-22T14:25:16.486Z,87.00
2019-02-22T14:27:46.307Z,87.40
2019-02-22T14:30:15.992Z,87.70
2019-02-22T14:32:44.677Z,88.10
2019-02-22T14:35:13.196Z,88.40
2019-02-22T14:37:41.700Z,89.00
2019-02-22T14:40:11.989Z,88.00
2019-02-22T14:42:40.416Z,88.70
2019-02-22T14:45:10.301Z,88.40
2019-02-22T14:47:39.069Z,88.60
2019-02-22T14:50:16.025Z,89.10
2019-02-22T14:52:44.460Z,89.50
2019-02-22T14:55:13.293Z,90.30
2019-02-22T14:57:44.372Z,90.30
2019-02-22T15:00:19.587Z,91.10
2019-02-22T15:02:48.017Z,90.90
2019-02-22T15:05:16.772Z,90.70
2019-02-22T15:07:45.197Z,90.80
2019-02-22T15:10:13.731Z,90.90
2019-02-22T15:12:42.437Z,91.00
2019-02-22T15:15:13.562Z,91.20
2019-02-22T15:17:43.625Z,91.40
2019-02-22T15:20:12.378Z,90.50
2019-02-22T15:22:40.808Z,89.80
2019-02-22T15:25:14.021Z,88.50
2019-02-22T15:27:42.458Z,88.20
2019-02-22T15:30:13.170Z,88.00
2019-02-22T15:32:41.658Z,89.00
2019-02-22T15:35:14.518Z,90.00
2019-02-22T15:37:43.463Z,90.10
2019-02-22T15:40:13.320Z,90.20
2019-02-22T15:42:41.808Z,90.40
2019-02-22T15:45:14.919Z,90.70
2019-02-22T15:47:43.377Z,90.40
2019-02-22T15:50:14.437Z,90.20
2019-02-22T15:52:43.176Z,89.90
2019-02-22T15:55:14.328Z,89.60
2019-02-22T15:57:42.099Z,89.60
2019-02-22T16:00:17.070Z,89.90
2019-02-22T16:02:45.498Z,89.00
2019-02-22T16:05:21.331Z,89.50
2019-02-22T16:07:50.087Z,89.70
2019-02-22T16:10:18.550Z,90.20
2019-02-22T16:12:47.254Z,90.50
2019-02-22T16:15:16.743Z,90.60
2019-02-22T16:17:45.441Z,90.80
2019-02-22T16:20:14.337Z,90.90
2019-02-22T16:22:42.843Z,91.00
2019-02-22T16:25:18.963Z,91.00
2019-02-22T16:27:41.718Z,91.00
2019-02-22T16:30:13.653Z,91.10
2019-02-22T16:32:42.460Z,91.20
2019-02-22T16:35:10.877Z,91.20
2019-02-22T16:37:39.742Z,91.20
2019-02-22T16:40:10.478Z,91.10
2019-02-22T16:42:39.275Z,91.00
2019-02-22T16:45:10.509Z,91.00
2019-02-22T16:47:40.302Z,91.00
2019-02-22T16:50:11.143Z,91.00
2019-02-22T16:52:39.950Z,91.00
2019-02-22T16:55:11.813Z,91.10
2019-02-22T16:57:40.254Z,91.10
2019-02-22T17:00:11.014Z,91.10
2019-02-22T17:02:39.518Z,91.20
2019-02-22T17:05:10.229Z,91.20
2019-02-22T17:07:38.673Z,91.20
2019-02-22T17:10:09.606Z,91.40
2019-02-22T17:12:38.348Z,91.50
2019-02-22T17:15:09.515Z,91.50
2019-02-22T17:17:38.028Z,91.50
2019-02-22T17:20:11.196Z,91.50
2019-02-22T17:22:39.971Z,91.40
2019-02-22T17:25:14.485Z,91.40
2019-02-22T17:27:42.935Z,91.90
2019-02-22T17:30:14.003Z,91.50
2019-02-22T17:32:42.522Z,91.50
2019-02-22T17:35:11.284Z,91.30
2019-02-22T17:37:39.712Z,91.40
2019-02-22T17:40:39.358Z,91.50
2019-02-22T17:43:07.792Z,91.40
2019-02-22T17:45:36.220Z,91.60
2019-02-22T17:48:04.665Z,91.60
2019-02-22T17:50:33.092Z,91.60
2019-02-22T17:53:01.560Z,91.60
2019-02-22T17:55:30.065Z,91.70
2019-02-22T17:57:58.674Z,91.90
2019-02-22T18:00:27.109Z,91.90
2019-02-22T18:02:55.577Z,92.00
2019-02-22T18:05:24.077Z,92.00
2019-02-22T18:07:52.513Z,92.00
2019-02-22T18:10:20.938Z,91.90
2019-02-22T18:12:49.638Z,91.90
2019-02-22T18:15:18.629Z,92.10
2019-02-22T18:17:47.717Z,92.20
2019-02-22T18:20:16.153Z,92.40
2019-02-22T18:22:44.893Z,92.40
2019-02-22T18:25:13.989Z,92.50
2019-02-22T18:27:42.787Z,92.70
2019-02-22T18:30:14.330Z,92.60
2019-02-22T18:32:42.758Z,92.50
2019-02-22T18:35:11.628Z,92.50
2019-02-22T18:37:40.138Z,92.50
2019-02-22T18:40:14.391Z,92.80
2019-02-22T18:42:42.821Z,92.60
2019-02-22T18:45:11.273Z,92.50
2019-02-22T18:47:39.702Z,92.50
2019-02-22T18:50:10.348Z,92.50
2019-02-22T18:52:39.062Z,92.70
2019-02-22T18:55:12.154Z,92.80
2019-02-22T18:57:40.594Z,92.70
2019-02-22T19:00:20.514Z,92.70
2019-02-22T19:02:49.516Z,92.50
2019-02-22T19:05:18.030Z,92.50
2019-02-22T19:07:46.500Z,91.60
2019-02-22T19:10:16.866Z,91.90
2019-02-22T19:12:45.302Z,91.30
2019-02-22T19:15:14.968Z,90.90
2019-02-22T19:17:43.389Z,90.70
2019-02-22T19:20:21.593Z,91.00
2019-02-22T19:22:50.020Z,91.10
2019-02-22T19:25:18.452Z,91.30
2019-02-22T19:27:46.901Z,90.70
2019-02-22T19:30:20.154Z,89.40
2019-02-22T19:32:48.585Z,90.30
2019-02-22T19:35:17.013Z,89.20
2019-02-22T19:37:45.445Z,87.40
2019-02-22T19:40:16.641Z,87.50
2019-02-22T19:42:58.481Z,88.40
2019-02-22T19:45:29.405Z,88.30
2019-02-22T19:47:57.868Z,86.70
2019-02-22T19:50:26.297Z,85.20
2019-02-22T19:52:54.729Z,85.90
2019-02-22T19:55:23.149Z,86.30
2019-02-22T19:57:51.585Z,86.90
2019-02-22T20:00:20.141Z,86.00
2019-02-22T20:02:48.587Z,86.70
2019-02-22T20:05:17.081Z,85.40
2019-02-22T20:07:45.521Z,86.00
2019-02-22T20:10:18.333Z,86.20
2019-02-22T20:12:46.450Z,86.10
2019-02-22T20:15:16.313Z,86.10
2019-02-22T20:17:53.217Z,86.00
2019-02-22T20:20:16.578Z,86.20
2019-02-22T20:22:45.301Z,85.50
2019-02-22T20:25:14.237Z,86.00
2019-02-22T20:27:42.776Z,85.90
2019-02-22T20:30:16.130Z,86.90
2019-02-22T20:32:44.622Z,86.40
2019-02-22T20:35:25.117Z,85.30
2019-02-22T20:37:53.695Z,85.70
2019-02-22T20:40:22.197Z,85.50
2019-02-22T20:42:50.642Z,84.80
2019-02-22T20:45:19.100Z,85.60
2019-02-22T20:47:47.666Z,85.40
2019-02-22T20:50:16.455Z,85.20
2019-02-22T20:52:45.243Z,85.40
2019-02-22T20:55:14.029Z,85.40
2019-02-22T20:57:42.476Z,84.60
2019-02-22T21:00:25.045Z,85.40
2019-02-22T21:02:53.809Z,86.10
2019-02-22T21:05:22.241Z,85.80
2019-02-22T21:07:50.706Z,86.30
2019-02-22T21:10:20.296Z,84.90
2019-02-22T21:12:48.801Z,85.60
2019-02-22T21:15:17.481Z,87.00
2019-02-22T21:17:46.237Z,86.00
2019-02-22T21:20:16.561Z,86.10
2019-02-22T21:22:45.017Z,86.40
2019-02-22T21:25:13.511Z,85.90
2019-02-22T21:27:42.231Z,85.40
2019-02-22T21:30:22.613Z,86.00
2019-02-22T21:32:51.128Z,85.40
2019-02-22T21:35:19.882Z,84.80
2019-02-22T21:37:48.329Z,84.10
2019-02-22T21:40:16.760Z,85.10
2019-02-22T21:42:45.252Z,84.40
2019-02-22T21:45:14.756Z,84.60
2019-02-22T21:47:53.655Z,85.10
2019-02-22T21:50:15.372Z,84.00
2019-02-22T21:52:43.813Z,84.70
2019-02-22T21:55:13.847Z,85.10
2019-02-22T21:57:42.301Z,85.00
2019-02-22T22:00:14.198Z,85.10
2019-02-22T22:02:42.643Z,84.60
2019-02-22T22:05:11.884Z,84.80
2019-02-22T22:07:40.373Z,83.70
2019-02-22T22:10:09.234Z,84.40
2019-02-22T22:12:37.744Z,84.60
2019-02-22T22:15:10.690Z,85.20
2019-02-22T22:17:39.414Z,84.60
2019-02-22T22:20:09.508Z,85.40
2019-02-22T22:22:38.305Z,85.10
2019-02-22T22:25:09.862Z,85.30
2019-02-22T22:27:38.333Z,83.80
2019-02-22T22:30:09.601Z,84.40
2019-02-22T22:32:38.034Z,84.90
2019-02-22T22:35:08.917Z,83.90
2019-02-22T22:37:57.042Z,84.40
2019-02-22T22:40:25.473Z,84.50
2019-02-22T22:42:53.921Z,84.50
2019-02-22T22:45:22.630Z,84.10
2019-02-22T22:47:51.107Z,83.90
2019-02-22T22:50:19.868Z,84.10
2019-02-22T22:52:48.309Z,83.80
2019-02-22T22:55:17.030Z,84.10
2019-02-22T22:57:45.462Z,83.60
2019-02-22T23:00:35.734Z,84.30
2019-02-22T23:03:04.797Z,83.10
2019-02-22T23:05:34.002Z,84.60
2019-02-22T23:08:02.436Z,84.70
2019-02-22T23:10:31.178Z,84.90
2019-02-22T23:12:59.681Z,84.60
2019-02-22T23:15:28.448Z,84.80
2019-02-22T23:17:57.221Z,84.90
2019-02-22T23:20:25.680Z,84.00
2019-02-22T23:22:54.370Z,84.50
2019-02-22T23:25:22.824Z,84.20
2019-02-22T23:27:51.573Z,82.80
2019-02-22T23:30:20.345Z,83.60
2019-02-22T23:32:48.838Z,83.40
2019-02-22T23:35:17.277Z,82.70
2019-02-22T23:37:45.845Z,83.40
2019-02-22T23:40:14.361Z,83.00
2019-02-22T23:42:43.070Z,82.40
2019-02-22T23:45:11.855Z,82.10
2019-02-22T23:47:40.281Z,82.40
2019-02-22T23:50:08.804Z,81.30
2019-02-22T23:52:37.230Z,82.30
2019-02-22T23:55:06.340Z,82.10
2019-02-22T23:57:35.037Z,81.50
